Naranja, Florida
Current Conditions -  °F | °C
As of 10:58 AM on Sunday 23 Nov 2014 (Local Time) from KHST Reporting Station
Few Clouds Few Clouds  
Wind Chill: 83°   Ceiling: Unl
Heat Index: 89°   Visibility: 10mi
Dew Point: 74°   Wind: 10mph
Humidity: 74%   Direction: 130°SE
Pressure: 30.02"   Gusts: 21mph
Location:  25.4784°N, 80.4002°W
Report Text: KHST 231558Z AUTO 13009G18KT 10SM FEW020 28/23 A3002 RMK AO2 SLP169 T02820232 $
Loading
Personal Weather Stations






























Interactive Weather Map New forecast layout! Learn more

10-Day Weather Forecast

Advertisements
Track Severe Weather on mobile